createdAt,value
2022-10-09T00:00:31.964Z,100.00
2022-10-09T00:02:33.817Z,100.00
2022-10-09T00:04:35.539Z,100.00
2022-10-09T00:06:37.301Z,100.00
2022-10-09T00:08:40.324Z,100.00
2022-10-09T00:10:43.369Z,100.00
2022-10-09T00:12:45.312Z,100.00
2022-10-09T00:14:47.095Z,100.00
2022-10-09T00:16:48.838Z,100.00
2022-10-09T00:18:51.826Z,100.00
2022-10-09T00:20:53.532Z,100.00
2022-10-09T00:22:55.211Z,100.00
2022-10-09T00:24:56.978Z,100.00
2022-10-09T00:26:58.692Z,100.00
2022-10-09T00:29:00.598Z,100.00
2022-10-09T00:31:05.912Z,100.00
2022-10-09T00:33:07.678Z,100.00
2022-10-09T00:35:09.541Z,100.00
2022-10-09T00:37:11.384Z,100.00
2022-10-09T00:39:13.114Z,100.00
2022-10-09T00:41:17.822Z,100.00
2022-10-09T00:43:39.643Z,100.00
2022-10-09T00:45:48.165Z,100.00
2022-10-09T00:48:11.267Z,100.00
2022-10-09T00:50:35.852Z,100.00
2022-10-09T00:52:37.760Z,100.00
2022-10-09T00:54:41.843Z,100.00
2022-10-09T00:56:44.099Z,100.00
2022-10-09T00:58:51.883Z,100.00
2022-10-09T01:00:54.016Z,100.00
2022-10-09T01:02:55.879Z,100.00
2022-10-09T01:04:57.797Z,100.00
2022-10-09T01:07:21.753Z,100.00
2022-10-09T01:09:31.015Z,100.00
2022-10-09T01:11:50.686Z,100.00
2022-10-09T01:14:04.720Z,100.00
2022-10-09T01:16:12.593Z,100.00
2022-10-09T01:18:33.945Z,100.00
2022-10-09T01:20:57.198Z,100.00
2022-10-09T01:23:13.669Z,100.00
2022-10-09T01:25:25.682Z,100.00
2022-10-09T01:27:29.095Z,100.00
2022-10-09T01:29:42.607Z,100.00
2022-10-09T01:31:48.296Z,100.00
2022-10-09T01:33:50.247Z,100.00
2022-10-09T01:35:53.688Z,100.00
2022-10-09T01:37:56.662Z,100.00
2022-10-09T01:39:59.387Z,100.00
2022-10-09T01:42:02.343Z,100.00
2022-10-09T01:44:14.569Z,100.00
2022-10-09T01:46:23.298Z,100.00
2022-10-09T01:48:25.710Z,100.00
2022-10-09T01:50:33.337Z,100.00
2022-10-09T01:52:52.179Z,100.00
2022-10-09T01:55:08.567Z,100.00
2022-10-09T01:57:14.076Z,100.00
2022-10-09T01:59:18.798Z,100.00
2022-10-09T02:01:31.362Z,100.00
2022-10-09T02:03:35.438Z,100.00
2022-10-09T02:05:39.049Z,100.00
2022-10-09T02:07:41.148Z,100.00
2022-10-09T02:09:44.264Z,100.00
2022-10-09T02:11:53.053Z,100.00
2022-10-09T02:13:55.908Z,100.00
2022-10-09T02:16:40.750Z,100.00
2022-10-09T02:19:23.496Z,100.00
2022-10-09T02:21:46.844Z,100.00
2022-10-09T02:23:51.311Z,100.00
2022-10-09T02:25:53.577Z,100.00
2022-10-09T02:27:55.978Z,100.00
2022-10-09T02:29:59.592Z,100.00
2022-10-09T02:32:01.505Z,100.00
2022-10-09T02:34:08.929Z,100.00
2022-10-09T02:36:11.039Z,100.00
2022-10-09T02:38:12.892Z,100.00
2022-10-09T02:40:15.232Z,100.00
2022-10-09T02:42:17.189Z,100.00
2022-10-09T02:44:19.176Z,100.00
2022-10-09T02:46:21.641Z,100.00
2022-10-09T02:48:23.480Z,100.00
2022-10-09T02:50:25.461Z,100.00
2022-10-09T02:52:27.390Z,100.00
2022-10-09T02:54:29.093Z,100.00
2022-10-09T02:56:32.189Z,100.00
2022-10-09T02:58:36.476Z,100.00
2022-10-09T03:00:38.788Z,100.00
2022-10-09T03:02:40.831Z,100.00
2022-10-09T03:04:42.701Z,100.00
2022-10-09T03:06:44.459Z,100.00
2022-10-09T03:08:48.421Z,100.00
2022-10-09T03:10:50.223Z,100.00
2022-10-09T03:12:52.205Z,100.00
2022-10-09T03:14:54.078Z,100.00
2022-10-09T03:16:55.824Z,100.00
2022-10-09T03:18:57.871Z,100.00
2022-10-09T03:20:59.967Z,100.00
2022-10-09T03:23:01.673Z,100.00
2022-10-09T03:25:03.543Z,100.00
2022-10-09T03:27:05.422Z,100.00
2022-10-09T03:29:07.105Z,100.00
2022-10-09T03:31:13.050Z,100.00
2022-10-09T03:33:21.680Z,100.00
2022-10-09T03:35:23.371Z,100.00
2022-10-09T03:37:25.201Z,100.00
2022-10-09T03:39:26.954Z,100.00
2022-10-09T03:41:28.666Z,100.00
2022-10-09T03:43:31.005Z,100.00
2022-10-09T03:45:32.889Z,100.00
2022-10-09T03:47:34.569Z,100.00
2022-10-09T03:49:36.408Z,100.00
2022-10-09T03:51:38.236Z,100.00
2022-10-09T03:53:39.915Z,100.00
2022-10-09T03:55:42.694Z,100.00
2022-10-09T03:57:44.514Z,100.00
2022-10-09T03:59:46.196Z,100.00
2022-10-09T04:01:48.091Z,100.00
2022-10-09T04:03:50.054Z,100.00
2022-10-09T04:05:51.750Z,100.00
2022-10-09T04:07:53.606Z,100.00
2022-10-09T04:09:55.856Z,100.00
2022-10-09T04:11:57.551Z,100.00
2022-10-09T04:13:59.874Z,100.00
2022-10-09T04:16:01.852Z,100.00
2022-10-09T04:18:03.985Z,100.00
2022-10-09T04:20:06.102Z,100.00
2022-10-09T04:22:07.893Z,100.00
2022-10-09T04:24:09.583Z,100.00
2022-10-09T04:26:12.579Z,100.00
2022-10-09T04:28:14.518Z,100.00
2022-10-09T04:30:16.446Z,100.00
2022-10-09T04:32:18.186Z,100.00
2022-10-09T04:34:20.174Z,100.00
2022-10-09T04:36:22.206Z,100.00
2022-10-09T04:38:24.831Z,100.00
2022-10-09T04:40:26.646Z,100.00
2022-10-09T04:42:28.326Z,100.00
2022-10-09T04:44:30.065Z,100.00
2022-10-09T04:46:31.970Z,100.00
2022-10-09T04:48:44.904Z,100.00
2022-10-09T04:50:47.085Z,100.00
2022-10-09T04:52:49.048Z,100.00
2022-10-09T04:54:50.964Z,100.00
2022-10-09T04:56:52.704Z,100.00
2022-10-09T04:58:54.530Z,100.00
2022-10-09T05:00:56.248Z,100.00
2022-10-09T05:02:58.033Z,100.00
2022-10-09T05:04:59.854Z,100.00
2022-10-09T05:07:01.638Z,100.00
2022-10-09T05:09:03.551Z,100.00
2022-10-09T05:11:16.640Z,100.00
2022-10-09T05:13:18.351Z,100.00
2022-10-09T05:15:20.138Z,100.00
2022-10-09T05:17:23.442Z,100.00
2022-10-09T05:19:25.493Z,100.00
2022-10-09T05:21:28.523Z,100.00
2022-10-09T05:23:30.534Z,100.00
2022-10-09T05:25:32.215Z,100.00
2022-10-09T05:27:34.042Z,100.00
2022-10-09T05:29:35.919Z,100.00
2022-10-09T05:31:37.692Z,100.00
2022-10-09T05:33:39.484Z,100.00
2022-10-09T05:35:41.359Z,100.00
2022-10-09T05:37:44.962Z,100.00
2022-10-09T05:39:46.794Z,100.00
2022-10-09T05:41:48.491Z,100.00
2022-10-09T05:43:50.236Z,100.00
2022-10-09T05:45:52.381Z,100.00
2022-10-09T05:47:54.246Z,100.00
2022-10-09T05:49:55.928Z,100.00
2022-10-09T05:51:57.629Z,100.00
2022-10-09T05:54:00.227Z,100.00
2022-10-09T05:56:17.148Z,100.00
2022-10-09T05:58:18.873Z,100.00
2022-10-09T06:00:20.589Z,100.00
2022-10-09T06:02:22.340Z,100.00
2022-10-09T06:04:24.938Z,100.00
2022-10-09T06:06:29.894Z,100.00
2022-10-09T06:08:33.086Z,100.00
2022-10-09T06:10:43.295Z,100.00
2022-10-09T06:12:45.260Z,100.00
2022-10-09T06:14:46.962Z,100.00
2022-10-09T06:16:48.811Z,100.00
2022-10-09T06:18:50.713Z,100.00
2022-10-09T06:20:57.156Z,100.00
2022-10-09T06:22:58.927Z,100.00
2022-10-09T06:25:00.606Z,100.00
2022-10-09T06:27:02.303Z,100.00
2022-10-09T06:29:04.203Z,100.00
2022-10-09T06:31:07.188Z,100.00
2022-10-09T06:33:08.877Z,100.00
2022-10-09T06:35:10.638Z,100.00
2022-10-09T06:37:12.389Z,100.00
2022-10-09T06:39:14.097Z,100.00
2022-10-09T06:41:18.259Z,100.00
2022-10-09T06:43:19.964Z,100.00
2022-10-09T06:45:21.675Z,100.00
2022-10-09T06:47:23.559Z,100.00
2022-10-09T06:49:25.315Z,100.00
2022-10-09T06:51:28.127Z,100.00
2022-10-09T06:53:30.409Z,100.00
2022-10-09T06:55:32.877Z,100.00
2022-10-09T06:57:34.617Z,100.00
2022-10-09T06:59:36.332Z,100.00
2022-10-09T07:01:38.351Z,100.00
2022-10-09T07:03:42.445Z,100.00
2022-10-09T07:05:44.199Z,100.00
2022-10-09T07:07:45.918Z,100.00
2022-10-09T07:09:47.631Z,100.00
2022-10-09T07:11:49.582Z,100.00
2022-10-09T07:13:54.255Z,100.00
2022-10-09T07:15:56.010Z,100.00
2022-10-09T07:17:57.894Z,100.00
2022-10-09T07:19:59.656Z,100.00
2022-10-09T07:22:01.526Z,100.00
2022-10-09T07:24:05.632Z,100.00
2022-10-09T07:26:20.807Z,100.00
2022-10-09T07:28:23.236Z,100.00
2022-10-09T07:30:25.192Z,100.00
2022-10-09T07:32:27.073Z,100.00
2022-10-09T07:34:28.770Z,100.00
2022-10-09T07:36:30.532Z,100.00
2022-10-09T07:38:32.432Z,100.00
2022-10-09T07:40:35.355Z,100.00
2022-10-09T07:42:37.221Z,100.00
2022-10-09T07:44:39.073Z,100.00
2022-10-09T07:46:40.810Z,100.00
2022-10-09T07:48:42.896Z,100.00
2022-10-09T07:50:44.768Z,100.00
2022-10-09T07:52:46.785Z,100.00
2022-10-09T07:54:48.699Z,100.00
2022-10-09T07:56:50.876Z,100.00
2022-10-09T07:59:04.205Z,100.00
2022-10-09T08:01:07.681Z,100.00
2022-10-09T08:03:10.587Z,100.00
2022-10-09T08:05:12.285Z,100.00
2022-10-09T08:07:14.204Z,100.00
2022-10-09T08:09:18.055Z,100.00
2022-10-09T08:11:21.290Z,100.00
2022-10-09T08:13:23.382Z,100.00
2022-10-09T08:15:25.750Z,100.00
2022-10-09T08:17:27.470Z,100.00
2022-10-09T08:19:29.406Z,100.00
2022-10-09T08:21:31.609Z,100.00
2022-10-09T08:23:33.687Z,100.00
2022-10-09T08:25:36.349Z,100.00
2022-10-09T08:27:38.280Z,100.00
2022-10-09T08:29:40.441Z,100.00
2022-10-09T08:31:42.629Z,100.00
2022-10-09T08:33:44.762Z,100.00
2022-10-09T08:35:46.611Z,100.00
2022-10-09T08:37:48.417Z,100.00
2022-10-09T08:39:50.294Z,100.00
2022-10-09T08:41:54.383Z,100.00
2022-10-09T08:44:19.463Z,100.00
2022-10-09T08:46:29.474Z,100.00
2022-10-09T08:48:39.021Z,100.00
2022-10-09T08:50:47.411Z,100.00
2022-10-09T08:52:56.654Z,100.00
2022-10-09T08:55:17.502Z,100.00
2022-10-09T08:57:21.381Z,100.00
2022-10-09T08:59:23.165Z,100.00
2022-10-09T09:01:39.258Z,100.00
2022-10-09T09:03:53.456Z,100.00
2022-10-09T09:06:03.087Z,100.00
2022-10-09T09:08:13.427Z,100.00
2022-10-09T09:10:35.507Z,100.00
2022-10-09T09:12:51.095Z,100.00
2022-10-09T09:15:38.357Z,100.00
2022-10-09T09:17:44.591Z,100.00
2022-10-09T09:20:08.052Z,100.00
2022-10-09T09:22:13.538Z,100.00
2022-10-09T09:24:19.196Z,100.00
2022-10-09T09:26:22.191Z,100.00
2022-10-09T09:28:28.828Z,100.00
2022-10-09T09:30:44.287Z,100.00
2022-10-09T09:33:11.201Z,100.00
2022-10-09T09:35:21.374Z,100.00
2022-10-09T09:37:23.520Z,100.00
2022-10-09T09:42:00.724Z,100.00
2022-10-09T09:44:02.944Z,100.00
2022-10-09T09:46:14.654Z,100.00
2022-10-09T09:48:26.698Z,100.00
2022-10-09T09:50:48.562Z,100.00
2022-10-09T09:52:56.205Z,100.00
2022-10-09T09:54:59.122Z,100.00
2022-10-09T09:57:12.336Z,100.00
2022-10-09T09:59:38.811Z,100.00
2022-10-09T10:01:40.557Z,100.00
2022-10-09T10:03:49.314Z,100.00
2022-10-09T10:05:51.338Z,100.00
2022-10-09T10:07:53.643Z,100.00
2022-10-09T10:10:26.513Z,100.00
2022-10-09T10:12:29.460Z,100.00
2022-10-09T10:14:32.601Z,100.00
2022-10-09T10:16:38.900Z,100.00
2022-10-09T10:18:43.265Z,100.00
2022-10-09T10:21:09.903Z,100.00
2022-10-09T10:23:43.069Z,100.00
2022-10-09T10:25:45.261Z,100.00
2022-10-09T10:27:50.165Z,100.00
2022-10-09T10:29:56.787Z,100.00
2022-10-09T10:32:17.226Z,100.00
2022-10-09T10:34:32.613Z,100.00
2022-10-09T10:36:34.910Z,100.00
2022-10-09T10:38:45.309Z,100.00
2022-10-09T10:40:56.996Z,100.00
2022-10-09T10:42:59.401Z,100.00
2022-10-09T10:45:10.657Z,100.00
2022-10-09T10:47:21.857Z,100.00
2022-10-09T10:49:23.562Z,100.00
2022-10-09T10:51:47.753Z,100.00
2022-10-09T10:54:19.589Z,100.00
2022-10-09T10:56:35.773Z,100.00
2022-10-09T10:58:47.908Z,100.00
2022-10-09T11:01:04.489Z,100.00
2022-10-09T11:03:34.378Z,100.00
2022-10-09T11:05:47.152Z,100.00
2022-10-09T11:08:23.097Z,100.00
2022-10-09T11:10:38.795Z,100.00
2022-10-09T11:12:52.654Z,100.00
2022-10-09T11:15:27.000Z,100.00
2022-10-09T11:17:40.496Z,100.00
2022-10-09T11:20:02.773Z,100.00
2022-10-09T11:22:38.729Z,100.00
2022-10-09T11:25:02.300Z,100.00
2022-10-09T11:27:13.435Z,100.00
2022-10-09T11:29:21.821Z,100.00
2022-10-09T11:31:33.060Z,100.00
2022-10-09T11:33:59.085Z,100.00
2022-10-09T11:36:25.922Z,100.00
2022-10-09T11:38:33.376Z,100.00
2022-10-09T11:40:40.342Z,100.00
2022-10-09T11:42:42.426Z,100.00
2022-10-09T11:45:00.985Z,100.00
2022-10-09T11:47:09.422Z,100.00
2022-10-09T11:49:23.001Z,100.00
2022-10-09T11:51:30.681Z,100.00
2022-10-09T11:53:34.497Z,100.00
2022-10-09T11:55:36.533Z,100.00
2022-10-09T11:57:38.233Z,100.00
2022-10-09T11:59:40.015Z,100.00
2022-10-09T12:01:43.546Z,100.00
2022-10-09T12:03:45.367Z,100.00
2022-10-09T12:05:49.450Z,100.00
2022-10-09T12:07:51.330Z,100.00
2022-10-09T12:09:59.865Z,100.00
2022-10-09T12:12:08.547Z,100.00
2022-10-09T12:14:23.821Z,100.00
2022-10-09T12:16:51.687Z,100.00
2022-10-09T12:18:53.866Z,100.00
2022-10-09T12:20:57.871Z,100.00
2022-10-09T12:23:26.329Z,100.00
2022-10-09T12:25:45.326Z,100.00
2022-10-09T12:27:48.404Z,100.00
2022-10-09T12:30:11.738Z,100.00
2022-10-09T12:32:18.929Z,100.00
2022-10-09T12:34:23.070Z,98.85
2022-10-09T12:36:26.273Z,94.32
2022-10-09T12:38:30.079Z,96.55
2022-10-09T12:40:33.611Z,93.60
2022-10-09T12:42:35.549Z,90.82
2022-10-09T12:44:39.500Z,92.98
2022-10-09T12:46:41.293Z,92.97
2022-10-09T12:48:43.793Z,94.63
2022-10-09T12:50:45.793Z,94.18
2022-10-09T12:52:53.622Z,92.61
2022-10-09T12:54:55.718Z,95.38
2022-10-09T12:57:00.012Z,94.73
2022-10-09T12:59:03.019Z,96.01
2022-10-09T13:01:07.697Z,95.47
2022-10-09T13:03:35.192Z,96.59
2022-10-09T13:05:42.319Z,98.31
2022-10-09T13:07:53.010Z,98.58
2022-10-09T13:10:01.145Z,98.28
2022-10-09T13:12:22.988Z,99.81
2022-10-09T13:15:20.357Z,99.00
2022-10-09T13:17:37.460Z,98.75
2022-10-09T13:19:39.245Z,99.36
2022-10-09T13:21:41.282Z,100.00
2022-10-09T13:23:43.133Z,100.00
2022-10-09T13:25:45.277Z,100.00
2022-10-09T13:27:47.375Z,100.00
2022-10-09T13:29:49.631Z,100.00
2022-10-09T13:31:51.552Z,100.00
2022-10-09T13:33:53.514Z,100.00
2022-10-09T13:35:55.232Z,100.00
2022-10-09T13:37:57.068Z,100.00
2022-10-09T13:40:00.172Z,100.00
2022-10-09T13:42:03.125Z,100.00
2022-10-09T13:44:05.028Z,100.00
2022-10-09T13:46:06.845Z,100.00
2022-10-09T13:48:08.587Z,100.00
2022-10-09T13:50:13.579Z,100.00
2022-10-09T13:52:15.449Z,100.00
2022-10-09T13:54:17.512Z,100.00
2022-10-09T13:56:19.601Z,100.00
2022-10-09T13:58:22.165Z,100.00
2022-10-09T14:00:23.967Z,100.00
2022-10-09T14:02:25.837Z,100.00
2022-10-09T14:04:29.014Z,100.00
2022-10-09T14:06:33.402Z,100.00
2022-10-09T14:08:35.115Z,100.00
2022-10-09T14:10:41.772Z,100.00
2022-10-09T14:12:43.520Z,100.00
2022-10-09T14:14:45.200Z,100.00
2022-10-09T14:16:46.979Z,100.00
2022-10-09T14:18:48.841Z,100.00
2022-10-09T14:20:50.512Z,100.00
2022-10-09T14:22:52.612Z,100.00
2022-10-09T14:24:54.377Z,100.00
2022-10-09T14:26:56.061Z,100.00
2022-10-09T14:29:01.637Z,100.00
2022-10-09T14:31:07.662Z,100.00
2022-10-09T14:33:09.843Z,100.00
2022-10-09T14:35:13.102Z,100.00
2022-10-09T14:37:29.850Z,100.00
2022-10-09T14:39:36.610Z,100.00
2022-10-09T14:41:38.418Z,100.00
2022-10-09T14:43:40.220Z,100.00
2022-10-09T14:45:42.394Z,100.00
2022-10-09T14:47:44.158Z,100.00
2022-10-09T14:49:46.644Z,100.00
2022-10-09T14:51:48.396Z,100.00
2022-10-09T14:53:50.463Z,100.00
2022-10-09T14:55:52.180Z,100.00
2022-10-09T14:57:53.862Z,100.00
2022-10-09T14:59:56.172Z,100.00
2022-10-09T15:01:57.943Z,100.00
2022-10-09T15:04:00.641Z,100.00
2022-10-09T15:06:07.578Z,100.00
2022-10-09T15:08:09.365Z,100.00
2022-10-09T15:10:11.061Z,100.00
2022-10-09T15:12:13.370Z,100.00
2022-10-09T15:14:15.215Z,100.00
2022-10-09T15:16:18.407Z,100.00
2022-10-09T15:18:20.307Z,100.00
2022-10-09T15:20:22.063Z,100.00
2022-10-09T15:22:23.752Z,100.00
2022-10-09T15:24:25.586Z,100.00
2022-10-09T15:26:29.150Z,100.00
2022-10-09T15:28:30.934Z,100.00
2022-10-09T15:30:32.855Z,100.00
2022-10-09T15:32:34.714Z,100.00
2022-10-09T15:34:40.657Z,100.00
2022-10-09T15:36:43.223Z,100.00
2022-10-09T15:38:45.123Z,100.00
2022-10-09T15:40:54.899Z,100.00
2022-10-09T15:42:56.721Z,100.00
2022-10-09T15:44:58.593Z,100.00
2022-10-09T15:47:00.272Z,100.00
2022-10-09T15:49:02.104Z,100.00
2022-10-09T15:51:05.238Z,100.00
2022-10-09T15:53:06.914Z,100.00
2022-10-09T15:55:09.007Z,100.00
2022-10-09T15:57:10.958Z,100.00
2022-10-09T15:59:13.566Z,100.00
2022-10-09T16:01:16.904Z,100.00
2022-10-09T16:03:18.975Z,100.00
2022-10-09T16:05:20.674Z,100.00
2022-10-09T16:07:22.496Z,100.00
2022-10-09T16:09:24.418Z,100.00
2022-10-09T16:11:26.963Z,100.00
2022-10-09T16:13:28.955Z,100.00
2022-10-09T16:15:30.748Z,100.00
2022-10-09T16:17:32.527Z,100.00
2022-10-09T16:19:34.312Z,100.00
2022-10-09T16:21:35.997Z,100.00
2022-10-09T16:23:38.008Z,100.00
2022-10-09T16:25:40.946Z,100.00
2022-10-09T16:27:42.669Z,100.00
2022-10-09T16:29:44.511Z,100.00
2022-10-09T16:31:46.476Z,100.00
2022-10-09T16:33:48.363Z,100.00
2022-10-09T16:35:50.220Z,100.00
2022-10-09T16:37:52.778Z,100.00
2022-10-09T16:39:54.522Z,100.00
2022-10-09T16:41:56.349Z,100.00
2022-10-09T16:43:58.309Z,100.00
2022-10-09T16:46:10.059Z,100.00
2022-10-09T16:48:11.805Z,100.00
2022-10-09T16:50:13.728Z,100.00
2022-10-09T16:52:15.452Z,100.00
2022-10-09T16:54:17.205Z,100.00
2022-10-09T16:56:21.354Z,100.00
2022-10-09T16:58:23.063Z,100.00
2022-10-09T17:00:24.827Z,100.00
2022-10-09T17:02:26.701Z,100.00
2022-10-09T17:04:28.391Z,100.00
2022-10-09T17:06:30.340Z,100.00
2022-10-09T17:08:32.120Z,100.00
2022-10-09T17:10:33.929Z,100.00
2022-10-09T17:12:35.783Z,100.00
2022-10-09T17:14:37.828Z,100.00
2022-10-09T17:16:41.275Z,100.00
2022-10-09T17:18:43.300Z,100.00
2022-10-09T17:20:45.170Z,100.00
2022-10-09T17:22:47.172Z,100.00
2022-10-09T17:24:49.501Z,100.00
2022-10-09T17:26:51.405Z,100.00
2022-10-09T17:28:53.822Z,100.00
2022-10-09T17:30:55.742Z,100.00
2022-10-09T17:32:57.506Z,100.00
2022-10-09T17:34:59.545Z,100.00
2022-10-09T17:37:01.663Z,100.00
2022-10-09T17:39:05.373Z,100.00
2022-10-09T17:41:07.729Z,100.00
2022-10-09T17:43:09.640Z,100.00
2022-10-09T17:45:12.124Z,100.00
2022-10-09T17:47:14.013Z,100.00
2022-10-09T17:49:17.231Z,100.00
2022-10-09T17:51:33.383Z,100.00
2022-10-09T17:53:35.351Z,100.00
2022-10-09T17:55:38.609Z,100.00
2022-10-09T17:57:40.483Z,100.00
2022-10-09T17:59:42.229Z,100.00
2022-10-09T18:01:44.095Z,100.00
2022-10-09T18:03:46.001Z,100.00
2022-10-09T18:05:49.756Z,100.00
2022-10-09T18:07:51.715Z,100.00
2022-10-09T18:09:53.842Z,100.00
2022-10-09T18:11:55.562Z,100.00
2022-10-09T18:13:57.833Z,100.00
2022-10-09T18:15:59.631Z,100.00
2022-10-09T18:18:01.360Z,100.00
2022-10-09T18:20:03.380Z,100.00
2022-10-09T18:22:05.223Z,100.00
2022-10-09T18:24:07.046Z,100.00
2022-10-09T18:26:10.815Z,100.00
2022-10-09T18:28:12.977Z,100.00
2022-10-09T18:30:14.827Z,100.00
2022-10-09T18:32:16.710Z,100.00
2022-10-09T18:34:18.538Z,100.00
2022-10-09T18:36:22.904Z,100.00
2022-10-09T18:38:24.753Z,100.00
2022-10-09T18:40:26.797Z,100.00
2022-10-09T18:42:28.484Z,100.00
2022-10-09T18:44:30.954Z,100.00
2022-10-09T18:46:39.613Z,100.00
2022-10-09T18:48:42.145Z,100.00
2022-10-09T18:50:44.637Z,100.00
2022-10-09T18:52:46.815Z,100.00
2022-10-09T18:54:52.408Z,100.00
2022-10-09T18:56:54.281Z,100.00
2022-10-09T18:58:56.423Z,100.00
2022-10-09T19:00:58.245Z,100.00
2022-10-09T19:03:00.030Z,100.00
2022-10-09T19:05:01.940Z,100.00
2022-10-09T19:07:03.737Z,100.00
2022-10-09T19:09:05.782Z,100.00
2022-10-09T19:11:07.624Z,100.00
2022-10-09T19:13:09.524Z,100.00
2022-10-09T19:15:12.412Z,100.00
2022-10-09T19:17:14.565Z,100.00
2022-10-09T19:19:16.441Z,100.00
2022-10-09T19:21:18.176Z,100.00
2022-10-09T19:23:20.225Z,100.00
2022-10-09T19:25:22.096Z,100.00
2022-10-09T19:27:26.553Z,100.00
2022-10-09T19:29:28.738Z,100.00
2022-10-09T19:31:30.641Z,100.00
2022-10-09T19:33:32.427Z,100.00
2022-10-09T19:35:34.355Z,100.00
2022-10-09T19:37:36.233Z,100.00
2022-10-09T19:39:37.934Z,100.00
2022-10-09T19:41:39.955Z,100.00
2022-10-09T19:43:42.610Z,100.00
2022-10-09T19:45:44.852Z,100.00
2022-10-09T19:47:50.009Z,100.00
2022-10-09T19:49:53.971Z,100.00
2022-10-09T19:51:55.893Z,100.00
2022-10-09T19:53:57.871Z,100.00
2022-10-09T19:55:59.545Z,100.00
2022-10-09T19:58:01.551Z,100.00
2022-10-09T20:00:04.806Z,100.00
2022-10-09T20:02:06.993Z,100.00
2022-10-09T20:04:10.897Z,100.00
2022-10-09T20:06:13.675Z,100.00
2022-10-09T20:08:15.492Z,100.00
2022-10-09T20:10:17.544Z,100.00
2022-10-09T20:12:19.370Z,100.00
2022-10-09T20:14:21.167Z,100.00
2022-10-09T20:16:25.970Z,100.00
2022-10-09T20:18:28.449Z,100.00
2022-10-09T20:20:31.519Z,100.00
2022-10-09T20:22:33.288Z,100.00
2022-10-09T20:24:35.052Z,100.00
2022-10-09T20:26:39.771Z,100.00
2022-10-09T20:28:47.230Z,100.00
2022-10-09T20:30:57.046Z,100.00
2022-10-09T20:32:59.490Z,100.00
2022-10-09T20:35:01.525Z,100.00
2022-10-09T20:37:03.321Z,100.00
2022-10-09T20:39:07.863Z,100.00
2022-10-09T20:41:09.767Z,100.00
2022-10-09T20:43:11.545Z,100.00
2022-10-09T20:45:13.257Z,100.00
2022-10-09T20:47:14.992Z,100.00
2022-10-09T20:49:17.003Z,100.00
2022-10-09T20:51:19.846Z,100.00
2022-10-09T20:53:21.790Z,100.00
2022-10-09T20:55:23.665Z,100.00
2022-10-09T20:57:25.415Z,100.00
2022-10-09T20:59:27.262Z,100.00
2022-10-09T21:01:29.364Z,100.00
2022-10-09T21:03:31.150Z,100.00
2022-10-09T21:05:33.200Z,100.00
2022-10-09T21:07:34.978Z,100.00
2022-10-09T21:09:37.099Z,100.00
2022-10-09T21:11:39.005Z,100.00
2022-10-09T21:13:40.798Z,100.00
2022-10-09T21:15:44.817Z,100.00
2022-10-09T21:17:46.592Z,100.00
2022-10-09T21:19:52.279Z,100.00
2022-10-09T21:21:54.054Z,100.00
2022-10-09T21:23:58.160Z,100.00
2022-10-09T21:26:00.100Z,100.00
2022-10-09T21:28:02.341Z,100.00
2022-10-09T21:30:04.600Z,100.00
2022-10-09T21:32:06.507Z,100.00
2022-10-09T21:34:08.593Z,100.00
2022-10-09T21:36:37.407Z,100.00
2022-10-09T21:38:39.615Z,100.00
2022-10-09T21:40:41.993Z,100.00
2022-10-09T21:42:43.932Z,100.00
2022-10-09T21:44:45.729Z,100.00
2022-10-09T21:46:47.471Z,100.00
2022-10-09T21:48:49.317Z,100.00
2022-10-09T21:50:51.125Z,100.00
2022-10-09T21:52:53.201Z,100.00
2022-10-09T21:54:55.095Z,100.00
2022-10-09T21:56:56.765Z,100.00
2022-10-09T21:58:58.518Z,100.00
2022-10-09T22:01:01.643Z,100.00
2022-10-09T22:03:03.715Z,100.00
2022-10-09T22:05:05.831Z,100.00
2022-10-09T22:07:07.571Z,100.00
2022-10-09T22:09:10.657Z,100.00
2022-10-09T22:11:12.685Z,100.00
2022-10-09T22:13:14.495Z,100.00
2022-10-09T22:15:16.426Z,100.00
2022-10-09T22:17:24.748Z,100.00
2022-10-09T22:19:26.496Z,100.00
2022-10-09T22:21:28.389Z,100.00
2022-10-09T22:23:30.086Z,100.00
2022-10-09T22:25:31.851Z,100.00
2022-10-09T22:27:33.648Z,100.00
2022-10-09T22:29:36.172Z,100.00
2022-10-09T22:31:37.945Z,100.00
2022-10-09T22:33:40.277Z,100.00
2022-10-09T22:35:42.015Z,100.00
2022-10-09T22:37:43.890Z,100.00
2022-10-09T22:39:45.563Z,100.00
2022-10-09T22:41:47.281Z,100.00
2022-10-09T22:43:51.755Z,100.00
2022-10-09T22:45:53.559Z,100.00
2022-10-09T22:47:55.257Z,100.00
2022-10-09T22:49:57.114Z,100.00
2022-10-09T22:51:58.850Z,100.00
2022-10-09T22:54:00.903Z,100.00
2022-10-09T22:56:13.155Z,100.00
2022-10-09T22:58:14.841Z,100.00
2022-10-09T23:00:16.614Z,100.00
2022-10-09T23:02:18.646Z,100.00
2022-10-09T23:04:21.618Z,100.00
2022-10-09T23:06:23.581Z,100.00
2022-10-09T23:08:25.302Z,100.00
2022-10-09T23:10:27.022Z,100.00
2022-10-09T23:12:28.861Z,100.00
2022-10-09T23:14:30.615Z,100.00
2022-10-09T23:16:32.706Z,100.00
2022-10-09T23:18:35.890Z,100.00
2022-10-09T23:20:37.582Z,100.00
2022-10-09T23:22:39.301Z,100.00
2022-10-09T23:24:41.173Z,100.00
2022-10-09T23:26:43.652Z,100.00
2022-10-09T23:28:50.786Z,100.00
2022-10-09T23:30:52.502Z,100.00
2022-10-09T23:32:54.213Z,100.00
2022-10-09T23:34:55.991Z,100.00
2022-10-09T23:36:57.871Z,100.00
2022-10-09T23:39:01.647Z,100.00
2022-10-09T23:41:06.408Z,100.00
2022-10-09T23:43:08.340Z,100.00
2022-10-09T23:45:10.806Z,100.00
2022-10-09T23:47:12.765Z,100.00
2022-10-09T23:49:14.517Z,100.00
2022-10-09T23:51:17.021Z,100.00
2022-10-09T23:53:19.998Z,100.00
2022-10-09T23:55:21.927Z,100.00
2022-10-09T23:57:23.651Z,100.00
2022-10-09T23:59:25.571Z,100.00
